Time;durP1;ratioP1;P1;durP2;ratioP2;P2;SDS_P1;SDS_P2;PMS_P1;PMS_P2;Temp;Humidity;BMP_temperature;BMP_pressure;BME280_temperature;BME280_humidity;BME280_pressure;Samples;Min_cycle;Max_cycle;Signal;HPM_P1;HPM_P2
2023/12/08 00:02:18;;;;;;;18.17;9.15;;;;;;;-0.67;86.39;99947.63;4995631;28;20062;-80
2023/12/08 00:04:45;;;;;;;18.50;9.27;;;;;;;-0.63;86.74;99938.28;4994099;28;20049;-81
2023/12/08 00:07:11;;;;;;;17.10;8.90;;;;;;;-0.64;86.58;99931.38;4998364;28;20077;-82
2023/12/08 00:09:38;;;;;;;18.63;8.75;;;;;;;-0.66;87.07;99938.22;5004304;28;20149;-80
2023/12/08 00:12:06;;;;;;;16.42;8.07;;;;;;;-0.65;87.23;99942.50;5016853;28;20513;-80
2023/12/08 00:14:33;;;;;;;18.88;8.80;;;;;;;-0.58;88.05;99937.53;4994024;28;20066;-81
2023/12/08 00:16:59;;;;;;;15.63;8.13;;;;;;;-0.62;87.90;99930.56;4997963;28;20077;-81
2023/12/08 00:19:26;;;;;;;19.45;10.15;;;;;;;-0.61;87.67;99927.16;4997789;28;20050;-81
2023/12/08 00:21:53;;;;;;;17.00;8.30;;;;;;;-0.61;87.67;99934.91;4996771;28;20049;-80
2023/12/08 00:24:20;;;;;;;17.13;7.85;;;;;;;-0.63;87.44;99931.41;4995669;28;20064;-81
2023/12/08 00:26:46;;;;;;;19.30;9.10;;;;;;;-0.62;87.32;99929.69;4987576;28;20053;-81
2023/12/08 00:29:13;;;;;;;22.05;10.82;;;;;;;-0.64;88.17;99918.47;4999568;28;20128;-81
2023/12/08 00:31:40;;;;;;;26.15;12.13;;;;;;;-0.62;87.73;99911.63;4993279;28;20078;-80
2023/12/08 00:34:07;;;;;;;21.73;9.80;;;;;;;-0.60;87.18;99907.41;4997976;28;20045;-80
2023/12/08 00:36:34;;;;;;;19.23;9.38;;;;;;;-0.61;87.05;99905.66;4997770;28;20044;-80
2023/12/08 00:39:01;;;;;;;21.05;9.73;;;;;;;-0.59;87.64;99906.59;4971727;28;20080;-81
2023/12/08 00:41:28;;;;;;;19.52;10.95;;;;;;;-0.55;88.07;99910.94;5011991;28;20069;-81
2023/12/08 00:43:55;;;;;;;19.98;9.38;;;;;;;-0.59;88.09;99916.88;4998637;28;20054;-80
2023/12/08 00:46:21;;;;;;;17.70;9.68;;;;;;;-0.57;87.63;99918.63;5000107;28;20049;-80
2023/12/08 00:48:48;;;;;;;21.05;10.25;;;;;;;-0.56;87.67;99924.69;4988593;28;20049;-78
2023/12/08 00:51:15;;;;;;;26.00;12.70;;;;;;;-0.58;88.13;99922.06;4997239;28;20046;-81
2023/12/08 00:53:42;;;;;;;24.33;12.45;;;;;;;-0.58;87.65;99931.50;5003298;28;20046;-81
2023/12/08 00:56:09;;;;;;;21.73;9.93;;;;;;;-0.57;87.23;99912.63;4995087;28;20484;-80
2023/12/08 00:58:37;;;;;;;24.20;10.63;;;;;;;-0.58;86.74;99900.56;4999462;28;20046;-81
2023/12/08 01:01:04;;;;;;;20.75;9.80;;;;;;;-0.57;85.97;99907.47;4982691;28;20042;-81
2023/12/08 01:03:32;;;;;;;16.77;8.85;;;;;;;-0.56;85.69;99889.47;4999510;28;20037;-81
2023/12/08 01:05:58;;;;;;;20.25;9.25;;;;;;;-0.54;85.76;99890.38;4999115;28;20049;-81
2023/12/08 01:08:25;;;;;;;16.35;8.23;;;;;;;-0.56;85.09;99884.31;4999231;28;20072;-81
2023/12/08 01:10:52;;;;;;;18.17;9.57;;;;;;;-0.51;85.96;99874.06;4997734;28;20046;-81
2023/12/08 01:13:19;;;;;;;19.30;9.75;;;;;;;-0.50;86.15;99868.09;4999072;28;20132;-80
2023/12/08 01:15:47;;;;;;;17.80;9.68;;;;;;;-0.50;85.49;99862.09;5000307;28;20059;-81
2023/12/08 01:18:14;;;;;;;20.27;10.27;;;;;;;-0.49;85.82;99859.53;4997920;28;20042;-80
2023/12/08 01:20:40;;;;;;;20.08;10.18;;;;;;;-0.49;86.48;99885.31;5000960;28;20054;-81
2023/12/08 01:23:07;;;;;;;22.23;10.30;;;;;;;-0.50;87.12;99893.88;5020924;28;20053;-81
2023/12/08 01:25:34;;;;;;;20.85;8.98;;;;;;;-0.53;86.64;99891.22;4983350;28;20039;-81
2023/12/08 01:28:01;;;;;;;20.73;10.20;;;;;;;-0.48;86.10;99889.59;4998591;28;20057;-81
2023/12/08 01:30:28;;;;;;;21.83;10.77;;;;;;;-0.44;85.95;99891.41;5000441;28;20121;-81
2023/12/08 01:32:54;;;;;;;20.95;9.18;;;;;;;-0.50;85.91;99883.56;4999314;28;20049;-81
2023/12/08 01:35:21;;;;;;;16.83;8.73;;;;;;;-0.48;85.18;99888.75;5005238;28;20052;-82
2023/12/08 01:37:48;;;;;;;18.15;8.73;;;;;;;-0.47;85.38;99886.19;5006587;28;20108;-80
2023/12/08 01:40:15;;;;;;;18.52;9.85;;;;;;;-0.47;86.50;99891.34;4999071;28;20060;-81
2023/12/08 01:42:44;;;;;;;17.80;8.68;;;;;;;-0.49;86.00;99889.56;4999093;28;20049;-81
2023/12/08 01:45:11;;;;;;;18.88;8.88;;;;;;;-0.49;85.93;99905.94;4983755;28;20042;-81
2023/12/08 01:47:39;;;;;;;20.05;9.85;;;;;;;-0.48;86.29;99901.63;4998665;28;20057;-79
2023/12/08 01:50:07;;;;;;;20.15;9.40;;;;;;;-0.50;86.39;99905.91;5008492;28;20126;-81
2023/12/08 01:52:34;;;;;;;15.27;7.68;;;;;;;-0.52;85.63;99895.56;4993943;28;20053;-81
2023/12/08 01:55:01;;;;;;;15.35;8.32;;;;;;;-0.46;85.48;99899.97;4986560;28;20050;-81
2023/12/08 01:57:27;;;;;;;15.45;7.90;;;;;;;-0.43;85.83;99897.47;4994272;28;20501;-81
2023/12/08 01:59:55;;;;;;;18.75;7.85;;;;;;;-0.45;84.78;99906.84;4983548;28;20058;-81
2023/12/08 02:02:24;;;;;;;13.50;7.70;;;;;;;-0.51;85.60;99897.28;5007527;28;20049;-81
2023/12/08 02:04:54;;;;;;;16.40;8.43;;;;;;;-0.47;84.86;99899.09;4997085;28;20038;-81
2023/12/08 02:07:21;;;;;;;15.13;7.75;;;;;;;-0.43;84.73;99890.59;5001186;28;20077;-80
2023/12/08 02:09:48;;;;;;;14.30;7.68;;;;;;;-0.44;84.63;99888.84;5000568;28;20132;-81
2023/12/08 02:12:15;;;;;;;12.15;6.88;;;;;;;-0.43;84.52;99885.44;4994307;28;20397;-81
2023/12/08 02:14:42;;;;;;;14.82;6.82;;;;;;;-0.45;83.64;99892.28;4997610;28;20437;-80
2023/12/08 02:17:10;;;;;;;13.38;6.75;;;;;;;-0.44;83.66;99898.28;4994282;28;20144;-79
2023/12/08 02:19:37;;;;;;;12.65;6.60;;;;;;;-0.46;83.23;99899.97;5007662;28;20143;-81
2023/12/08 02:22:05;;;;;;;12.60;6.30;;;;;;;-0.47;83.89;99887.91;5009839;28;20042;-81
2023/12/08 02:24:32;;;;;;;11.35;5.95;;;;;;;-0.46;83.71;99889.66;5001745;28;20042;-82
2023/12/08 02:26:59;;;;;;;14.15;6.53;;;;;;;-0.43;84.19;99880.28;4996168;28;20046;-81
2023/12/08 02:29:26;;;;;;;13.57;6.60;;;;;;;-0.44;83.33;99880.25;5007128;28;20061;-81
2023/12/08 02:32:01;;;;;;;11.05;6.00;;;;;;;-0.47;83.68;99877.59;4991964;28;20037;-81
2023/12/08 02:34:28;;;;;;;11.80;5.65;;;;;;;-0.47;84.09;99878.47;4985315;28;20056;-81
2023/12/08 02:36:57;;;;;;;10.30;5.85;;;;;;;-0.47;84.30;99865.56;4986297;28;20053;-82
2023/12/08 02:39:24;;;;;;;9.70;5.82;;;;;;;-0.45;83.92;99873.34;4990250;28;20041;-81
2023/12/08 02:41:51;;;;;;;10.80;5.88;;;;;;;-0.48;83.85;99875.84;4994859;28;20041;-81
2023/12/08 02:44:18;;;;;;;11.35;6.28;;;;;;;-0.47;83.24;99868.16;4996723;28;20045;-81
2023/12/08 02:46:45;;;;;;;11.43;5.72;;;;;;;-0.44;82.99;99862.19;5000488;28;20046;-81
2023/12/08 02:49:12;;;;;;;9.93;5.50;;;;;;;-0.42;82.74;99860.50;4985838;28;20050;-81
2023/12/08 02:51:39;;;;;;;11.55;5.53;;;;;;;-0.36;82.96;99858.94;4997053;28;20046;-79
2023/12/08 02:54:06;;;;;;;10.75;5.63;;;;;;;-0.37;82.02;99857.19;4987553;28;20393;-79
2023/12/08 02:56:33;;;;;;;12.20;6.10;;;;;;;-0.36;81.94;99855.50;4999274;28;20041;-81
2023/12/08 02:59:00;;;;;;;11.90;6.57;;;;;;;-0.34;81.83;99850.38;4992502;28;20049;-81
2023/12/08 03:01:27;;;;;;;10.15;5.90;;;;;;;-0.34;82.33;99847.78;4987304;28;20052;-80
2023/12/08 03:03:53;;;;;;;9.85;5.57;;;;;;;-0.32;81.79;99856.41;4994431;28;20049;-81
2023/12/08 03:06:20;;;;;;;11.15;5.68;;;;;;;-0.33;81.89;99854.66;4990875;28;20108;-81
2023/12/08 03:08:47;;;;;;;10.18;6.03;;;;;;;-0.28;81.46;99861.66;4990127;28;20051;-80
2023/12/08 03:11:14;;;;;;;9.65;5.63;;;;;;;-0.26;81.64;99856.53;4993488;28;20046;-81
2023/12/08 03:13:41;;;;;;;13.15;6.78;;;;;;;-0.27;81.25;99847.94;5002037;28;20048;-79
2023/12/08 03:16:08;;;;;;;11.80;5.57;;;;;;;-0.27;81.32;99837.63;4989254;28;20071;-81
2023/12/08 03:18:34;;;;;;;10.68;5.43;;;;;;;-0.27;81.99;99813.53;4999394;28;20118;-81
2023/12/08 03:21:01;;;;;;;9.95;5.47;;;;;;;-0.24;82.78;99821.34;5002870;28;20535;-81
2023/12/08 03:23:28;;;;;;;11.18;5.72;;;;;;;-0.24;82.56;99809.28;4998640;28;20038;-80
2023/12/08 03:25:55;;;;;;;10.35;5.47;;;;;;;-0.27;82.29;99798.94;4989592;28;20047;-78
2023/12/08 03:28:22;;;;;;;10.65;6.03;;;;;;;-0.23;82.67;99797.28;4993167;28;20045;-78
2023/12/08 03:30:48;;;;;;;9.05;5.15;;;;;;;-0.25;82.88;99797.25;4997387;28;20049;-79
2023/12/08 03:33:15;;;;;;;11.85;5.85;;;;;;;-0.27;83.60;99785.19;5003840;28;20050;-81
2023/12/08 03:35:42;;;;;;;12.88;6.10;;;;;;;-0.30;83.77;99790.28;5004317;28;20095;-81
2023/12/08 03:38:09;;;;;;;9.27;5.55;;;;;;;-0.26;84.10;99790.38;4993443;28;20156;-81
2023/12/08 03:40:36;;;;;;;10.20;5.68;;;;;;;-0.26;84.42;99792.06;5005233;28;20059;-80
2023/12/08 03:43:02;;;;;;;11.40;5.30;;;;;;;-0.27;85.10;99792.91;4991955;28;20045;-81
2023/12/08 03:45:29;;;;;;;10.52;5.45;;;;;;;-0.32;85.27;99786.78;4998689;28;20046;-81
2023/12/08 03:47:56;;;;;;;10.38;5.75;;;;;;;-0.34;85.12;99786.75;4987487;28;20049;-80
2023/12/08 03:50:23;;;;;;;10.10;6.03;;;;;;;-0.28;85.55;99789.44;5014693;28;20144;-80
2023/12/08 03:52:54;;;;;;;11.15;5.95;;;;;;;-0.30;84.35;99792.88;4985369;28;20057;-79
2023/12/08 03:55:21;;;;;;;11.50;6.53;;;;;;;-0.27;84.64;99782.59;4999950;28;20133;-81
2023/12/08 03:57:48;;;;;;;11.88;5.68;;;;;;;-0.26;85.08;99785.22;5012223;28;20038;-81
2023/12/08 04:00:18;;;;;;;10.90;5.63;;;;;;;-0.24;84.34;99780.94;4988180;28;20041;-81
2023/12/08 04:02:44;;;;;;;10.63;5.40;;;;;;;-0.25;83.97;99793.78;4998434;28;20137;-81
2023/12/08 04:05:11;;;;;;;10.73;5.35;;;;;;;-0.23;84.65;99776.66;5001593;28;20133;-81
2023/12/08 04:07:39;;;;;;;13.93;6.10;;;;;;;-0.25;84.60;99765.44;5004178;28;20050;-80
2023/12/08 04:10:06;;;;;;;10.02;6.07;;;;;;;-0.25;84.10;99760.28;5008211;28;20046;-82
2023/12/08 04:12:33;;;;;;;11.63;5.82;;;;;;;-0.24;83.79;99767.19;4994068;28;20053;-80
2023/12/08 04:14:59;;;;;;;10.48;5.50;;;;;;;-0.23;84.17;99771.50;4979245;28;20050;-82
2023/12/08 04:17:26;;;;;;;13.52;6.07;;;;;;;-0.25;84.47;99781.75;5000126;28;20069;-81
2023/12/08 04:19:53;;;;;;;11.68;6.05;;;;;;;-0.23;85.06;99789.56;4965418;28;20050;-81
2023/12/08 04:22:20;;;;;;;12.55;6.38;;;;;;;-0.24;85.17;99790.38;4994550;28;20054;-80
2023/12/08 04:24:47;;;;;;;11.82;5.97;;;;;;;-0.26;85.51;99790.38;4983098;28;20042;-80
2023/12/08 04:27:14;;;;;;;11.68;5.93;;;;;;;-0.26;85.96;99794.63;4992359;28;20050;-80
2023/12/08 04:29:41;;;;;;;13.38;6.00;;;;;;;-0.25;85.73;99791.22;5008893;28;20117;-80
2023/12/08 04:32:07;;;;;;;12.95;6.60;;;;;;;-0.26;86.08;99784.31;5013026;28;20054;-80
2023/12/08 04:34:34;;;;;;;10.25;5.47;;;;;;;-0.28;86.15;99786.00;4998892;28;20053;-80
2023/12/08 04:37:01;;;;;;;10.23;6.07;;;;;;;-0.27;86.24;99798.06;4986699;28;20076;-80
2023/12/08 04:39:29;;;;;;;10.98;6.00;;;;;;;-0.28;86.46;99809.22;5001490;28;20125;-79
2023/12/08 04:41:56;;;;;;;11.20;5.97;;;;;;;-0.30;86.13;99808.34;4996150;28;20037;-81
2023/12/08 04:44:22;;;;;;;12.43;6.20;;;;;;;-0.28;85.57;99822.09;5003890;28;20093;-79
2023/12/08 04:46:49;;;;;;;9.30;5.57;;;;;;;-0.27;85.94;99818.69;4997834;28;20141;-80
2023/12/08 04:49:16;;;;;;;11.48;6.05;;;;;;;-0.30;85.99;99818.66;4979905;28;20049;-81
2023/12/08 04:51:43;;;;;;;14.38;6.57;;;;;;;-0.31;86.12;99828.06;4993638;28;20074;-78
2023/12/08 04:54:09;;;;;;;13.05;5.88;;;;;;;-0.33;85.94;99815.97;4994677;28;20195;-80
2023/12/08 04:56:36;;;;;;;11.43;5.95;;;;;;;-0.36;86.05;99812.53;5001674;28;20049;-80
2023/12/08 04:59:04;;;;;;;13.82;5.88;;;;;;;-0.40;86.32;99813.28;5013878;28;20084;-79
2023/12/08 05:01:31;;;;;;;12.00;5.65;;;;;;;-0.41;86.59;99805.53;5006361;28;20038;-79
2023/12/08 05:03:57;;;;;;;13.32;5.93;;;;;;;-0.42;86.66;99804.69;4988910;28;20049;-79
2023/12/08 05:06:26;;;;;;;8.52;5.38;;;;;;;-0.46;86.48;99808.03;4997625;28;20050;-79
2023/12/08 05:08:53;;;;;;;11.10;5.80;;;;;;;-0.46;86.40;99805.44;5002186;28;20104;-80
2023/12/08 05:11:20;;;;;;;11.73;5.75;;;;;;;-0.46;86.20;99805.44;4998333;28;20050;-80
2023/12/08 05:13:47;;;;;;;12.77;6.07;;;;;;;-0.46;86.18;99805.44;5000301;28;20054;-80
2023/12/08 05:16:15;;;;;;;11.57;5.93;;;;;;;-0.49;86.23;99802.81;5000397;28;20069;-80
2023/12/08 05:18:42;;;;;;;11.63;6.25;;;;;;;-0.54;86.24;99799.28;4996162;28;20061;-80
2023/12/08 05:21:09;;;;;;;12.15;6.00;;;;;;;-0.54;86.34;99802.72;5034098;28;20420;-81
2023/12/08 05:23:36;;;;;;;12.82;6.22;;;;;;;-0.57;86.60;99794.06;5001931;28;20057;-79
2023/12/08 05:26:03;;;;;;;12.40;5.68;;;;;;;-0.59;86.47;99790.59;5001625;28;20042;-80
2023/12/08 05:28:30;;;;;;;10.75;5.60;;;;;;;-0.51;86.79;99788.16;5006232;28;20049;-79
2023/12/08 05:30:57;;;;;;;12.13;6.10;;;;;;;-0.53;87.35;99788.13;4973340;28;20456;-79
2023/12/08 05:33:24;;;;;;;13.30;6.22;;;;;;;-0.56;87.68;99795.81;5011648;28;20051;-79
2023/12/08 05:35:51;;;;;;;12.50;5.70;;;;;;;-0.55;87.95;99793.25;4992639;28;20041;-79
2023/12/08 05:38:18;;;;;;;12.85;7.13;;;;;;;-0.57;88.38;99799.22;5011821;28;20049;-79
2023/12/08 05:40:44;;;;;;;15.27;6.80;;;;;;;-0.60;88.57;99794.84;5000563;28;20058;-79
2023/12/08 05:43:11;;;;;;;12.73;6.45;;;;;;;-0.60;88.87;99801.72;4986182;28;20042;-80
2023/12/08 05:45:38;;;;;;;13.23;6.25;;;;;;;-0.62;89.11;99800.81;5010900;28;20046;-80
2023/12/08 05:48:05;;;;;;;12.07;6.32;;;;;;;-0.65;89.55;99800.75;5003874;28;20042;-80
2023/12/08 05:50:32;;;;;;;11.07;5.47;;;;;;;-0.63;89.25;99806.84;5012938;28;20053;-78
2023/12/08 05:52:59;;;;;;;14.02;6.45;;;;;;;-0.68;89.70;99808.44;5012823;28;20109;-79
2023/12/08 05:55:26;;;;;;;10.00;5.68;;;;;;;-0.62;89.18;99796.56;5005842;28;20039;-80
2023/12/08 05:57:52;;;;;;;12.57;6.50;;;;;;;-0.62;88.98;99803.38;4995423;28;20050;-79
2023/12/08 06:00:20;;;;;;;13.77;6.75;;;;;;;-0.60;89.73;99809.47;4988818;28;20136;-79
2023/12/08 06:02:47;;;;;;;12.45;6.43;;;;;;;-0.64;89.63;99808.50;5013976;28;20054;-80
2023/12/08 06:05:15;;;;;;;13.65;6.38;;;;;;;-0.60;89.61;99806.88;5017653;28;20068;-79
2023/12/08 06:07:42;;;;;;;11.43;6.15;;;;;;;-0.61;89.70;99812.88;5003324;28;20050;-79
2023/12/08 06:10:11;;;;;;;13.85;7.30;;;;;;;-0.61;90.22;99813.75;4999511;28;20058;-79
2023/12/08 06:12:39;;;;;;;17.38;7.00;;;;;;;-0.61;90.14;99818.91;5010317;28;20042;-79
2023/12/08 06:15:07;;;;;;;13.73;7.15;;;;;;;-0.61;90.60;99825.75;4985274;28;20056;-77
2023/12/08 06:17:34;;;;;;;15.52;7.18;;;;;;;-0.61;90.41;99823.19;4991021;28;20048;-79
2023/12/08 06:20:01;;;;;;;12.40;6.63;;;;;;;-0.65;90.82;99816.22;5008761;28;20050;-79
2023/12/08 06:22:27;;;;;;;14.55;6.65;;;;;;;-0.63;90.57;99819.72;5001036;28;20046;-79
2023/12/08 06:24:54;;;;;;;13.80;6.82;;;;;;;-0.63;90.47;99819.72;4990615;28;20057;-80
2023/12/08 06:27:21;;;;;;;14.65;6.90;;;;;;;-0.64;90.10;99817.97;5002173;28;20041;-79
2023/12/08 06:29:50;;;;;;;9.93;5.50;;;;;;;-0.68;90.05;99813.59;5005748;28;20054;-79
2023/12/08 06:32:18;;;;;;;12.32;7.15;;;;;;;-0.73;90.08;99809.19;4990463;28;20046;-79
2023/12/08 06:34:48;;;;;;;13.30;7.43;;;;;;;-0.72;90.44;99805.78;5005465;28;20053;-78
2023/12/08 06:37:15;;;;;;;13.90;7.07;;;;;;;-0.75;90.39;99816.03;4999422;28;20055;-80
2023/12/08 06:39:42;;;;;;;14.57;7.70;;;;;;;-0.76;90.51;99809.13;4996912;28;20131;-79
2023/12/08 06:42:10;;;;;;;16.80;7.25;;;;;;;-0.69;90.18;99814.44;4997815;28;20058;-80
2023/12/08 06:44:38;;;;;;;14.05;6.93;;;;;;;-0.69;90.40;99809.28;4993377;28;20419;-79
2023/12/08 06:47:05;;;;;;;14.52;7.18;;;;;;;-0.69;90.52;99806.72;4993617;28;20046;-79
2023/12/08 06:49:32;;;;;;;11.68;7.03;;;;;;;-0.73;90.58;99809.19;5001301;28;20072;-79
2023/12/08 06:51:59;;;;;;;14.57;6.93;;;;;;;-0.71;90.51;99807.53;4996286;28;20052;-80
2023/12/08 06:54:25;;;;;;;12.45;6.75;;;;;;;-0.74;90.56;99804.91;5001595;28;20056;-80
2023/12/08 06:56:52;;;;;;;13.90;6.72;;;;;;;-0.72;90.73;99804.94;4995537;28;20046;-80
2023/12/08 06:59:19;;;;;;;12.95;6.88;;;;;;;-0.69;90.88;99809.28;4990387;28;20125;-80
2023/12/08 07:01:45;;;;;;;14.57;7.28;;;;;;;-0.72;90.93;99804.94;4998873;28;20057;-79
2023/12/08 07:04:14;;;;;;;14.85;7.15;;;;;;;-0.76;91.12;99809.13;4978099;28;20042;-79
2023/12/08 07:06:40;;;;;;;16.15;7.65;;;;;;;-0.75;91.30;99805.75;5013805;28;20060;-80
2023/12/08 07:09:09;;;;;;;14.23;7.57;;;;;;;-0.74;91.31;99817.78;4987556;28;20124;-80
2023/12/08 07:11:36;;;;;;;14.80;7.47;;;;;;;-0.72;91.29;99813.53;4999672;28;20052;-79
2023/12/08 07:14:02;;;;;;;17.17;7.30;;;;;;;-0.67;91.28;99815.34;5010899;28;20137;-79
2023/12/08 07:16:29;;;;;;;16.02;7.55;;;;;;;-0.66;91.45;99822.22;4992770;28;20053;-79
2023/12/08 07:18:57;;;;;;;15.57;7.55;;;;;;;-0.68;91.66;99822.22;5004961;28;20112;-79
2023/12/08 07:21:24;;;;;;;16.60;7.35;;;;;;;-0.68;91.59;99822.22;4997389;28;20052;-80
2023/12/08 07:23:51;;;;;;;14.55;7.28;;;;;;;-0.66;91.50;99820.50;4989628;28;20077;-80
2023/12/08 07:26:18;;;;;;;15.93;8.10;;;;;;;-0.69;91.58;99824.75;4992974;28;20050;-80
2023/12/08 07:28:45;;;;;;;16.50;7.78;;;;;;;-0.68;91.62;99816.16;5002156;28;20119;-79
2023/12/08 07:31:13;;;;;;;13.35;7.20;;;;;;;-0.65;91.75;99823.94;4994964;28;20046;-80
2023/12/08 07:33:40;;;;;;;16.30;7.55;;;;;;;-0.67;91.61;99828.22;5008416;28;20117;-79
2023/12/08 07:36:07;;;;;;;16.30;8.27;;;;;;;-0.65;91.73;99822.25;4991978;28;20057;-79
2023/12/08 07:38:34;;;;;;;14.90;7.57;;;;;;;-0.63;91.85;99824.88;5011041;28;20208;-79
2023/12/08 07:41:01;;;;;;;16.75;7.88;;;;;;;-0.60;91.87;99833.53;4999236;28;20052;-80
2023/12/08 07:43:28;;;;;;;15.82;7.55;;;;;;;-0.61;91.98;99830.91;5005398;28;20567;-79
2023/12/08 07:45:54;;;;;;;16.45;8.73;;;;;;;-0.61;91.82;99828.34;4993381;28;20053;-79
2023/12/08 07:48:21;;;;;;;15.55;7.97;;;;;;;-0.61;91.97;99828.34;5000502;28;20050;-79
2023/12/08 07:50:48;;;;;;;17.85;8.23;;;;;;;-0.58;91.92;99830.97;4986946;28;20050;-80
2023/12/08 07:53:15;;;;;;;18.35;7.63;;;;;;;-0.59;91.86;99824.97;4975917;28;20052;-78
2023/12/08 07:55:42;;;;;;;17.13;8.73;;;;;;;-0.59;92.06;99827.53;5001335;28;20480;-80
2023/12/08 07:58:09;;;;;;;18.90;8.48;;;;;;;-0.57;92.09;99837.88;4992276;28;20061;-79
2023/12/08 08:00:36;;;;;;;16.52;8.45;;;;;;;-0.57;92.21;99824.97;5028446;28;20041;-80
2023/12/08 08:03:04;;;;;;;19.30;8.10;;;;;;;-0.58;92.33;99825.81;4985681;28;20054;-79
2023/12/08 08:05:32;;;;;;;18.70;8.48;;;;;;;-0.57;92.41;99827.56;4994344;28;20045;-79
2023/12/08 08:07:58;;;;;;;17.35;7.95;;;;;;;-0.55;92.28;99828.44;5005990;28;20053;-79
2023/12/08 08:10:25;;;;;;;21.38;8.70;;;;;;;-0.51;92.32;99830.25;4991243;28;20050;-80
2023/12/08 08:12:52;;;;;;;19.25;9.13;;;;;;;-0.47;92.61;99826.06;4996421;28;20060;-80
2023/12/08 08:15:19;;;;;;;17.05;7.78;;;;;;;-0.46;92.44;99828.66;5012445;28;20049;-80
2023/12/08 08:17:45;;;;;;;17.50;8.60;;;;;;;-0.44;92.59;99826.97;4995302;28;20054;-80
2023/12/08 08:20:12;;;;;;;17.45;8.30;;;;;;;-0.41;92.59;99821.84;4986096;28;20118;-79
2023/12/08 08:22:39;;;;;;;15.05;8.13;;;;;;;-0.39;92.67;99830.50;5001147;28;20133;-80
2023/12/08 08:25:06;;;;;;;18.45;8.38;;;;;;;-0.34;92.57;99835.75;5000204;28;20142;-80
2023/12/08 08:27:33;;;;;;;19.63;9.05;;;;;;;-0.32;92.57;99835.78;5005629;28;20045;-80
2023/12/08 08:30:00;;;;;;;19.10;9.43;;;;;;;-0.27;92.53;99836.75;5006032;28;20056;-81
2023/12/08 08:32:27;;;;;;;18.20;8.63;;;;;;;-0.20;92.83;99831.72;4992511;28;20065;-80
2023/12/08 08:34:54;;;;;;;17.70;8.75;;;;;;;-0.18;92.70;99835.19;5027310;28;20056;-80
2023/12/08 08:37:24;;;;;;;18.55;8.82;;;;;;;-0.19;92.53;99840.31;4996467;28;20065;-81
2023/12/08 08:39:51;;;;;;;18.33;8.98;;;;;;;-0.13;92.79;99848.19;4995386;28;20045;-79
2023/12/08 08:42:18;;;;;;;15.20;8.30;;;;;;;-0.12;92.80;99851.63;5002521;28;20050;-80
2023/12/08 08:44:45;;;;;;;17.00;9.15;;;;;;;-0.03;92.75;99859.53;4993556;28;20046;-80
2023/12/08 08:47:12;;;;;;;16.65;8.50;;;;;;;-0.01;92.92;99852.72;5000154;28;20053;-80
2023/12/08 08:49:39;;;;;;;18.10;9.20;;;;;;;0.07;93.12;99852.84;5000464;28;20054;-80
2023/12/08 08:52:06;;;;;;;20.92;10.75;;;;;;;0.19;93.21;99847.91;4985792;28;20072;-80
2023/12/08 08:54:33;;;;;;;20.13;9.95;;;;;;;0.28;93.48;99850.66;5001666;28;20057;-80
2023/12/08 08:56:59;;;;;;;19.83;10.10;;;;;;;0.33;93.58;99854.19;5006880;28;20065;-79
2023/12/08 08:59:26;;;;;;;20.10;10.93;;;;;;;0.37;93.62;99851.66;4991148;28;20141;-81
2023/12/08 09:01:53;;;;;;;22.15;10.95;;;;;;;0.40;93.60;99855.13;4984776;28;20058;-80
2023/12/08 09:04:20;;;;;;;21.33;10.30;;;;;;;0.43;93.62;99859.50;4993455;28;20056;-79
2023/12/08 09:06:47;;;;;;;24.17;11.45;;;;;;;0.43;93.53;99862.06;4987823;28;20047;-79
2023/12/08 09:09:13;;;;;;;23.23;10.13;;;;;;;0.45;93.69;99857.78;4998065;28;20050;-80
2023/12/08 09:11:41;;;;;;;24.30;11.60;;;;;;;0.49;93.53;99846.69;4988857;28;20050;-80
2023/12/08 09:14:08;;;;;;;23.73;11.32;;;;;;;0.53;93.58;99856.22;4984414;28;20046;-79
2023/12/08 09:16:35;;;;;;;26.42;11.45;;;;;;;0.58;93.69;99840.78;4998746;28;20048;-80
2023/12/08 09:19:01;;;;;;;27.13;10.48;;;;;;;0.60;93.75;99839.97;4998441;28;20084;-80
2023/12/08 09:21:28;;;;;;;21.95;11.10;;;;;;;0.64;93.73;99839.19;4990773;28;20092;-80
2023/12/08 09:23:55;;;;;;;26.25;11.43;;;;;;;0.64;93.68;99846.06;5001546;28;20092;-80
2023/12/08 09:26:22;;;;;;;26.85;10.45;;;;;;;0.61;93.67;99849.47;4995686;28;20104;-80
2023/12/08 09:28:49;;;;;;;22.90;11.45;;;;;;;0.67;93.76;99849.56;5023202;28;20057;-80
2023/12/08 09:31:16;;;;;;;22.17;10.90;;;;;;;0.74;93.75;99849.66;4994531;28;20133;-80
2023/12/08 09:33:42;;;;;;;24.88;10.80;;;;;;;0.69;93.63;99847.84;5001413;28;20050;-81
2023/12/08 09:36:09;;;;;;;27.23;10.77;;;;;;;0.71;93.67;99855.66;4984873;28;20226;-81
2023/12/08 09:38:36;;;;;;;25.05;11.88;;;;;;;0.72;93.60;99859.09;5004170;28;20057;-80
2023/12/08 09:41:04;;;;;;;24.08;11.77;;;;;;;0.78;93.62;99852.31;4998777;28;20045;-79
2023/12/08 09:43:59;;;;;;;22.63;11.13;;;;;;;0.81;93.64;99857.53;5013679;28;20053;-79
2023/12/08 09:46:26;;;;;;;23.20;10.95;;;;;;;0.78;93.72;99852.31;4987314;28;20052;-80
2023/12/08 09:48:58;;;;;;;27.50;12.05;;;;;;;0.84;93.63;99854.09;4982625;28;20069;-81
2023/12/08 09:51:26;;;;;;;26.00;11.82;;;;;;;0.85;93.73;99858.44;5006578;28;20485;-79
2023/12/08 09:53:53;;;;;;;25.88;11.73;;;;;;;0.89;93.54;99859.38;4991765;28;20054;-79
2023/12/08 09:56:21;;;;;;;24.00;11.60;;;;;;;0.88;93.50;99857.63;4997661;28;20049;-80
2023/12/08 09:58:48;;;;;;;23.80;11.05;;;;;;;0.93;93.61;99856.84;4998047;28;20050;-80
2023/12/08 10:01:16;;;;;;;27.52;11.85;;;;;;;0.98;93.76;99860.34;5013320;28;20044;-80
2023/12/08 10:03:44;;;;;;;25.17;10.55;;;;;;;1.01;93.63;99856.94;5001679;28;20124;-80
2023/12/08 10:06:11;;;;;;;25.70;11.07;;;;;;;1.04;93.71;99849.22;4980647;28;20103;-80
2023/12/08 10:08:39;;;;;;;25.27;10.45;;;;;;;1.08;93.58;99850.16;5007588;28;20048;-81
2023/12/08 10:11:06;;;;;;;25.05;10.77;;;;;;;1.07;93.57;99838.06;5001540;28;20100;-80
2023/12/08 10:13:33;;;;;;;24.23;10.35;;;;;;;1.11;93.60;99837.28;4994482;28;20050;-81
2023/12/08 10:16:00;;;;;;;25.30;10.52;;;;;;;1.13;93.54;99833.88;5005635;28;20093;-81
2023/12/08 10:18:28;;;;;;;24.63;10.82;;;;;;;1.17;93.52;99834.75;5016521;28;20073;-80
2023/12/08 10:21:14;;;;;;;23.98;10.60;;;;;;;1.19;93.62;99843.44;5051062;28;20071;-80
2023/12/08 10:23:43;;;;;;;23.38;11.35;;;;;;;1.18;93.42;99839.09;5016592;28;20057;-80
2023/12/08 10:26:12;;;;;;;22.38;10.30;;;;;;;1.25;93.52;99832.31;5038599;28;20109;-80
2023/12/08 10:28:39;;;;;;;25.38;11.00;;;;;;;1.28;93.53;99829.75;5027086;28;20042;-80
2023/12/08 10:31:06;;;;;;;28.48;11.32;;;;;;;1.26;93.51;99834.91;5023935;28;20061;-80
2023/12/08 10:33:33;;;;;;;25.98;11.35;;;;;;;1.35;93.60;99821.22;5028526;28;20056;-79
2023/12/08 10:36:00;;;;;;;27.45;11.55;;;;;;;1.35;93.57;99818.63;5017058;28;20125;-79
2023/12/08 10:38:27;;;;;;;23.08;10.10;;;;;;;1.44;93.65;99810.97;5019196;28;20132;-80
2023/12/08 10:40:54;;;;;;;20.33;8.52;;;;;;;1.47;93.54;99810.16;5020578;28;20050;-81
2023/12/08 10:43:25;;;;;;;22.38;8.63;;;;;;;1.48;93.34;99806.72;5015849;28;20054;-80
2023/12/08 10:45:53;;;;;;;21.17;9.35;;;;;;;1.52;93.58;99811.94;5012477;28;20057;-80
2023/12/08 10:48:20;;;;;;;25.55;9.75;;;;;;;1.54;93.47;99814.56;5015332;28;20045;-80
2023/12/08 10:50:49;;;;;;;21.15;9.90;;;;;;;1.56;93.43;99812.84;5013284;28;20061;-80
2023/12/08 10:53:19;;;;;;;21.50;9.07;;;;;;;1.67;93.52;99811.25;5022765;28;20056;-80
2023/12/08 10:55:57;;;;;;;24.75;9.43;;;;;;;1.68;93.35;99813.00;5019806;28;20057;-78
2023/12/08 10:58:25;;;;;;;25.17;10.15;;;;;;;1.68;93.29;99815.56;5020660;28;20049;-80
2023/12/08 11:00:54;;;;;;;23.60;9.07;;;;;;;1.83;93.35;99816.59;5016873;28;20049;-79
2023/12/08 11:03:22;;;;;;;21.83;9.57;;;;;;;1.75;93.32;99813.91;5018491;28;20046;-80
2023/12/08 11:06:08;;;;;;;21.70;9.27;;;;;;;1.78;93.10;99818.25;5022648;28;20050;-79
2023/12/08 11:08:36;;;;;;;21.98;9.57;;;;;;;1.84;93.15;99820.91;4998551;28;20050;-79
2023/12/08 11:11:06;;;;;;;22.98;8.50;;;;;;;1.91;93.08;99817.53;4982802;28;20041;-79
2023/12/08 11:13:39;;;;;;;23.67;10.20;;;;;;;1.96;93.28;99809.84;4994339;28;20105;-78
2023/12/08 11:16:18;;;;;;;17.50;8.43;;;;;;;2.05;93.24;99812.50;4997950;28;20065;-81
2023/12/08 11:18:45;;;;;;;22.48;9.25;;;;;;;1.98;93.27;99816.72;5001512;28;20061;-81
2023/12/08 11:21:12;;;;;;;19.90;8.35;;;;;;;1.94;93.06;99825.34;4994962;28;20041;-80
2023/12/08 11:23:40;;;;;;;23.02;9.27;;;;;;;1.94;93.15;99835.69;5006769;28;20042;-80
2023/12/08 11:26:30;;;;;;;21.08;8.75;;;;;;;1.89;93.01;99833.03;5019351;28;20138;-80
2023/12/08 11:29:16;;;;;;;20.17;8.18;;;;;;;1.97;93.20;99830.53;4991947;28;20046;-81